createdAt,value
2017-09-25T00:00:06.553Z,12.21
2017-09-25T00:01:04.731Z,12.18
2017-09-25T00:02:05.031Z,12.18
2017-09-25T00:03:05.050Z,12.17
2017-09-25T00:04:05.024Z,12.15
2017-09-25T00:05:05.024Z,12.18
2017-09-25T00:06:04.716Z,12.18
2017-09-25T00:07:05.017Z,12.13
2017-09-25T00:08:05.017Z,12.13
2017-09-25T00:09:04.707Z,12.07
2017-09-25T00:10:05.016Z,12.12
2017-09-25T00:11:05.021Z,12.09
2017-09-25T00:12:05.011Z,12.12
2017-09-25T00:13:04.696Z,12.1
2017-09-25T00:14:04.395Z,12.1
2017-09-25T00:15:05.001Z,12.1
2017-09-25T00:16:04.999Z,12.12
2017-09-25T00:17:04.390Z,12.04
2017-09-25T00:18:05.001Z,12.13
2017-09-25T00:19:04.996Z,12
2017-09-25T00:20:04.687Z,12.03
2017-09-25T00:21:04.692Z,12
2017-09-25T00:22:04.685Z,11.95
2017-09-25T00:23:04.676Z,11.84
2017-09-25T00:24:04.686Z,11.84
2017-09-25T00:25:04.669Z,11.87
2017-09-25T00:26:04.673Z,11.95
2017-09-25T00:27:04.676Z,11.88
2017-09-25T00:28:04.982Z,11.91
2017-09-25T00:29:04.984Z,11.87
2017-09-25T00:30:07.128Z,11.84
2017-09-25T00:31:04.355Z,11.83
2017-09-25T00:32:04.654Z,11.83
2017-09-25T00:33:04.651Z,11.83
2017-09-25T00:34:04.973Z,11.77
2017-09-25T00:35:04.646Z,11.75
2017-09-25T00:36:04.972Z,11.72
2017-09-25T00:37:04.653Z,11.77
2017-09-25T00:38:04.639Z,11.77
2017-09-25T00:39:04.944Z,11.73
2017-09-25T00:40:05.752Z,11.81
2017-09-25T00:41:04.944Z,11.7
2017-09-25T00:42:04.941Z,11.69
2017-09-25T00:43:04.940Z,11.7
2017-09-25T00:44:04.933Z,11.68
2017-09-25T00:45:04.640Z,11.7
2017-09-25T00:46:04.628Z,11.62
2017-09-25T00:47:04.617Z,11.72
2017-09-25T00:48:04.615Z,11.6
2017-09-25T00:49:04.924Z,11.63
2017-09-25T00:50:04.614Z,11.54
2017-09-25T00:51:04.920Z,11.51
2017-09-25T00:52:04.916Z,11.57
2017-09-25T00:53:04.919Z,11.55
2017-09-25T00:54:04.619Z,11.51
2017-09-25T00:55:04.921Z,11.5
2017-09-25T00:56:04.597Z,11.47
2017-09-25T00:57:04.592Z,11.43
2017-09-25T00:58:04.597Z,11.55
2017-09-25T00:59:04.590Z,11.41
2017-09-25T01:00:04.904Z,11.44
2017-09-25T01:01:04.600Z,11.43
2017-09-25T01:02:04.583Z,11.41
2017-09-25T01:03:04.280Z,11.45
2017-09-25T01:04:04.888Z,11.48
2017-09-25T01:05:04.578Z,11.45
2017-09-25T01:06:04.582Z,11.44
2017-09-25T01:07:04.890Z,11.44
2017-09-25T01:08:04.568Z,11.5
2017-09-25T01:09:04.564Z,11.35
2017-09-25T01:10:04.564Z,11.37
2017-09-25T01:11:04.569Z,11.37
2017-09-25T01:12:04.561Z,11.45
2017-09-25T01:13:04.555Z,11.41
2017-09-25T01:14:04.558Z,11.41
2017-09-25T01:15:04.865Z,11.43
2017-09-25T01:16:04.860Z,11.35
2017-09-25T01:17:04.546Z,11.35
2017-09-25T01:18:04.540Z,11.45
2017-09-25T01:19:04.855Z,11.43
2017-09-25T01:20:04.539Z,11.45
2017-09-25T01:21:04.539Z,11.41
2017-09-25T01:22:04.530Z,11.43
2017-09-25T01:23:04.538Z,11.45
2017-09-25T01:24:04.531Z,11.44
2017-09-25T01:25:04.529Z,11.36
2017-09-25T01:26:04.520Z,11.32
2017-09-25T01:27:04.840Z,11.32
2017-09-25T01:28:04.836Z,11.29
2017-09-25T01:29:04.843Z,11.33
2017-09-25T01:30:04.838Z,11.36
2017-09-25T01:31:05.118Z,11.36
2017-09-25T01:32:04.508Z,11.35
2017-09-25T01:33:04.826Z,11.36
2017-09-25T01:34:04.815Z,11.33
2017-09-25T01:35:04.819Z,11.35
2017-09-25T01:36:04.810Z,11.33
2017-09-25T01:37:04.492Z,11.37
2017-09-25T01:38:04.488Z,11.33
2017-09-25T01:39:04.805Z,11.29
2017-09-25T01:40:04.490Z,11.3
2017-09-25T01:41:04.479Z,11.3
2017-09-25T01:42:04.476Z,11.33
2017-09-25T01:43:04.477Z,11.26
2017-09-25T01:44:04.787Z,11.33
2017-09-25T01:45:04.785Z,11.29
2017-09-25T01:46:04.476Z,11.37
2017-09-25T01:47:04.785Z,11.36
2017-09-25T01:48:04.470Z,11.36
2017-09-25T01:49:04.787Z,11.35
2017-09-25T01:50:04.155Z,11.43
2017-09-25T01:51:04.451Z,11.32
2017-09-25T01:52:04.762Z,11.35
2017-09-25T01:53:04.451Z,11.4
2017-09-25T01:54:04.760Z,11.37
2017-09-25T01:55:04.442Z,11.35
2017-09-25T01:56:04.753Z,11.3
2017-09-25T01:57:04.748Z,11.33
2017-09-25T01:58:04.435Z,11.27
2017-09-25T01:59:04.741Z,11.26
2017-09-25T02:00:04.765Z,11.3
2017-09-25T02:01:07.337Z,11.3
2017-09-25T02:02:04.438Z,11.3
2017-09-25T02:03:04.425Z,11.29
2017-09-25T02:04:04.423Z,11.26
2017-09-25T02:05:04.741Z,11.33
2017-09-25T02:06:04.727Z,11.3
2017-09-25T02:07:04.777Z,11.32
2017-09-25T02:08:04.410Z,11.35
2017-09-25T02:09:04.716Z,11.41
2017-09-25T02:10:04.717Z,11.3
2017-09-25T02:11:04.709Z,11.3
2017-09-25T02:12:04.430Z,11.3
2017-09-25T02:13:04.393Z,11.26
2017-09-25T02:14:04.389Z,11.26
2017-09-25T02:15:04.390Z,11.19
2017-09-25T02:16:04.398Z,11.19
2017-09-25T02:17:04.691Z,11.26
2017-09-25T02:18:04.076Z,11.14
2017-09-25T02:19:04.692Z,11.23
2017-09-25T02:20:04.727Z,11.26
2017-09-25T02:21:04.369Z,11.29
2017-09-25T02:22:04.369Z,11.3
2017-09-25T02:23:04.366Z,11.23
2017-09-25T02:24:04.366Z,11.27
2017-09-25T02:25:04.369Z,11.23
2017-09-25T02:26:04.699Z,11.1
2017-09-25T02:27:04.045Z,11.12
2017-09-25T02:28:04.353Z,11.14
2017-09-25T02:29:04.347Z,11.11
2017-09-25T02:30:04.370Z,11.07
2017-09-25T02:31:04.650Z,11.05
2017-09-25T02:32:04.340Z,11
2017-09-25T02:33:04.336Z,10.94
2017-09-25T02:34:04.332Z,11.02
2017-09-25T02:35:04.334Z,10.92
2017-09-25T02:36:04.328Z,10.97
2017-09-25T02:37:04.632Z,11
2017-09-25T02:38:04.327Z,10.93
2017-09-25T02:39:04.338Z,10.96
2017-09-25T02:40:04.317Z,10.94
2017-09-25T02:41:04.623Z,10.94
2017-09-25T02:42:04.624Z,10.94
2017-09-25T02:43:04.619Z,10.94
2017-09-25T02:44:04.344Z,10.84
2017-09-25T02:45:04.621Z,10.96
2017-09-25T02:46:03.990Z,10.89
2017-09-25T02:47:05.153Z,10.9
2017-09-25T02:48:04.292Z,10.96
2017-09-25T02:49:04.606Z,10.86
2017-09-25T02:50:04.604Z,10.78
2017-09-25T02:51:04.597Z,10.87
2017-09-25T02:52:04.593Z,10.81
2017-09-25T02:53:04.591Z,10.75
2017-09-25T02:54:04.606Z,10.72
2017-09-25T02:55:04.276Z,10.78
2017-09-25T02:56:03.960Z,10.78
2017-09-25T02:57:04.578Z,10.72
2017-09-25T02:58:04.264Z,10.75
2017-09-25T02:59:04.257Z,10.74
2017-09-25T03:00:04.576Z,10.79
2017-09-25T03:01:04.253Z,10.81
2017-09-25T03:02:05.661Z,10.74
2017-09-25T03:03:04.564Z,10.86
2017-09-25T03:04:04.244Z,10.86
2017-09-25T03:05:04.545Z,10.82
2017-09-25T03:06:04.548Z,10.86
2017-09-25T03:07:04.233Z,10.86
2017-09-25T03:08:04.269Z,10.78
2017-09-25T03:09:03.916Z,10.76
2017-09-25T03:10:04.227Z,10.79
2017-09-25T03:11:04.220Z,10.76
2017-09-25T03:12:04.228Z,10.75
2017-09-25T03:13:04.212Z,10.75
2017-09-25T03:14:04.529Z,10.76
2017-09-25T03:15:04.517Z,10.72
2017-09-25T03:16:04.511Z,10.75
2017-09-25T03:17:04.511Z,10.71
2017-09-25T03:18:04.507Z,10.69
2017-09-25T03:19:04.197Z,10.64
2017-09-25T03:20:03.889Z,10.67
2017-09-25T03:21:04.187Z,10.63
2017-09-25T03:22:04.497Z,10.6
2017-09-25T03:23:04.494Z,10.57
2017-09-25T03:24:03.867Z,10.61
2017-09-25T03:25:04.174Z,10.63
2017-09-25T03:26:03.868Z,10.54
2017-09-25T03:27:04.168Z,10.68
2017-09-25T03:28:04.475Z,10.69
2017-09-25T03:29:04.473Z,10.64
2017-09-25T03:30:04.162Z,10.67
2017-09-25T03:31:04.157Z,10.75
2017-09-25T03:32:09.156Z,10.61
2017-09-25T03:33:04.150Z,10.64
2017-09-25T03:34:04.453Z,10.57
2017-09-25T03:35:03.838Z,10.57
2017-09-25T03:36:04.137Z,10.61
2017-09-25T03:37:04.453Z,10.61
2017-09-25T03:38:04.166Z,10.56
2017-09-25T03:39:04.130Z,10.51
2017-09-25T03:40:04.430Z,10.49
2017-09-25T03:41:04.434Z,10.57
2017-09-25T03:42:04.116Z,10.57
2017-09-25T03:43:04.431Z,10.44
2017-09-25T03:44:04.111Z,10.42
2017-09-25T03:45:04.417Z,10.44
2017-09-25T03:46:04.413Z,10.44
2017-09-25T03:47:04.099Z,10.4
2017-09-25T03:48:04.110Z,10.44
2017-09-25T03:49:04.401Z,10.37
2017-09-25T03:50:04.421Z,10.38
2017-09-25T03:51:04.086Z,10.4
2017-09-25T03:52:03.779Z,10.34
2017-09-25T03:53:04.397Z,10.33
2017-09-25T03:54:04.081Z,10.42
2017-09-25T03:55:04.075Z,10.34
2017-09-25T03:56:04.077Z,10.34
2017-09-25T03:57:04.377Z,10.38
2017-09-25T03:58:04.065Z,10.34
2017-09-25T03:59:04.063Z,10.3
2017-09-25T04:00:04.056Z,10.35
2017-09-25T04:01:04.372Z,10.38
2017-09-25T04:02:04.387Z,10.35
2017-09-25T04:03:05.697Z,10.34
2017-09-25T04:04:04.045Z,10.37
2017-09-25T04:05:04.384Z,10.4
2017-09-25T04:06:04.039Z,10.35
2017-09-25T04:07:04.037Z,10.33
2017-09-25T04:08:03.720Z,10.31
2017-09-25T04:09:03.717Z,10.33
2017-09-25T04:10:04.019Z,10.26
2017-09-25T04:11:03.713Z,10.31
2017-09-25T04:12:04.332Z,10.33
2017-09-25T04:13:04.323Z,10.31
2017-09-25T04:14:04.009Z,10.31
2017-09-25T04:15:04.317Z,10.3
2017-09-25T04:16:04.329Z,10.3
2017-09-25T04:17:04.000Z,10.23
2017-09-25T04:18:08.304Z,10.26
2017-09-25T04:19:04.304Z,10.22
2017-09-25T04:20:03.992Z,10.26
2017-09-25T04:21:04.299Z,10.17
2017-09-25T04:22:04.288Z,10.28
2017-09-25T04:23:03.982Z,10.17
2017-09-25T04:24:04.286Z,10.23
2017-09-25T04:25:03.975Z,10.26
2017-09-25T04:26:03.972Z,10.22
2017-09-25T04:27:03.980Z,10.31
2017-09-25T04:28:04.272Z,10.28
2017-09-25T04:29:03.951Z,10.26
2017-09-25T04:30:04.284Z,10.28
2017-09-25T04:31:04.258Z,10.22
2017-09-25T04:32:03.954Z,10.26
2017-09-25T04:33:04.248Z,10.26
2017-09-25T04:34:03.944Z,10.23
2017-09-25T04:35:04.246Z,10.37
2017-09-25T04:36:03.937Z,10.37
2017-09-25T04:37:04.238Z,10.35
2017-09-25T04:38:04.235Z,10.31
2017-09-25T04:39:03.930Z,10.41
2017-09-25T04:40:04.307Z,10.33
2017-09-25T04:41:04.226Z,10.28
2017-09-25T04:42:03.619Z,10.33
2017-09-25T04:43:03.595Z,10.26
2017-09-25T04:44:04.233Z,10.17
2017-09-25T04:45:04.217Z,10.15
2017-09-25T04:46:04.203Z,10.17
2017-09-25T04:47:03.893Z,10.2
2017-09-25T04:48:03.893Z,10.1
2017-09-25T04:49:04.192Z,10.09
2017-09-25T04:50:03.891Z,10.09
2017-09-25T04:51:03.886Z,10.05
2017-09-25T04:52:03.877Z,10.17
2017-09-25T04:53:04.176Z,10.19
2017-09-25T04:54:04.178Z,10.05
2017-09-25T04:55:03.879Z,10.2
2017-09-25T04:56:04.173Z,10.07
2017-09-25T04:57:04.174Z,10.23
2017-09-25T04:58:04.165Z,10.16
2017-09-25T04:59:04.154Z,10.1
2017-09-25T05:00:04.154Z,10.17
2017-09-25T05:01:04.145Z,10.1
2017-09-25T05:02:04.143Z,10.1
2017-09-25T05:03:03.853Z,10.12
2017-09-25T05:04:07.398Z,10.05
2017-09-25T05:05:03.823Z,10.04
2017-09-25T05:06:04.138Z,10.09
2017-09-25T05:07:03.835Z,9.99
2017-09-25T05:08:03.822Z,9.95
2017-09-25T05:09:04.129Z,9.97
2017-09-25T05:10:03.884Z,9.98
2017-09-25T05:11:03.804Z,9.98
2017-09-25T05:12:03.795Z,9.97
2017-09-25T05:13:03.795Z,10.02
2017-09-25T05:14:03.792Z,10.04
2017-09-25T05:15:03.481Z,10.15
2017-09-25T05:16:03.781Z,10.12
2017-09-25T05:17:04.091Z,10.34
2017-09-25T05:18:04.091Z,10.37
2017-09-25T05:19:04.077Z,10.38
2017-09-25T05:20:03.767Z,10.4
2017-09-25T05:21:03.763Z,10.53
2017-09-25T05:22:04.076Z,10.49
2017-09-25T05:23:04.061Z,10.57
2017-09-25T05:24:04.057Z,10.61
2017-09-25T05:25:04.056Z,10.61
2017-09-25T05:26:03.743Z,10.61
2017-09-25T05:27:04.047Z,10.57
2017-09-25T05:28:03.734Z,10.67
2017-09-25T05:29:03.785Z,10.61
2017-09-25T05:30:03.731Z,10.57
2017-09-25T05:31:04.059Z,10.59
2017-09-25T05:32:03.724Z,10.6
2017-09-25T05:33:04.039Z,10.54
2017-09-25T05:34:03.604Z,10.69
2017-09-25T05:35:04.023Z,10.64
2017-09-25T05:36:04.021Z,10.63
2017-09-25T05:37:04.008Z,10.68
2017-09-25T05:38:04.008Z,10.75
2017-09-25T05:39:04.004Z,10.75
2017-09-25T05:40:03.692Z,10.71
2017-09-25T05:41:03.684Z,10.71
2017-09-25T05:42:03.677Z,10.75
2017-09-25T05:43:03.989Z,10.76
2017-09-25T05:44:03.673Z,10.61
2017-09-25T05:45:03.669Z,10.57
2017-09-25T05:46:03.668Z,10.6
2017-09-25T05:47:03.972Z,10.61
2017-09-25T05:48:03.662Z,10.68
2017-09-25T05:49:03.665Z,10.75
2017-09-25T05:50:03.660Z,10.72
2017-09-25T05:51:03.355Z,10.6
2017-09-25T05:52:03.956Z,10.49
2017-09-25T05:53:03.646Z,10.44
2017-09-25T05:54:03.950Z,10.34
2017-09-25T05:55:03.945Z,10.23
2017-09-25T05:56:03.627Z,10.13
2017-09-25T05:57:03.621Z,10.15
2017-09-25T05:58:03.929Z,10.22
2017-09-25T05:59:03.623Z,10.05
2017-09-25T06:00:03.923Z,10.04
2017-09-25T06:01:03.297Z,10.01
2017-09-25T06:02:03.624Z,10.07
2017-09-25T06:03:03.605Z,10.1
2017-09-25T06:04:03.734Z,10.2
2017-09-25T06:05:03.588Z,10.17
2017-09-25T06:06:03.586Z,10.13
2017-09-25T06:07:03.903Z,10.07
2017-09-25T06:08:03.576Z,10.23
2017-09-25T06:09:03.265Z,10.25
2017-09-25T06:10:03.571Z,10.13
2017-09-25T06:11:03.567Z,10.33
2017-09-25T06:12:03.875Z,10.38
2017-09-25T06:13:03.570Z,10.38
2017-09-25T06:14:03.553Z,10.49
2017-09-25T06:15:03.858Z,10.56
2017-09-25T06:16:03.552Z,10.68
2017-09-25T06:17:03.856Z,10.71
2017-09-25T06:18:03.540Z,10.56
2017-09-25T06:19:05.989Z,10.53
2017-09-25T06:20:03.533Z,10.48
2017-09-25T06:21:03.863Z,10.54
2017-09-25T06:22:03.851Z,10.53
2017-09-25T06:23:03.521Z,10.59
2017-09-25T06:24:03.834Z,10.61
2017-09-25T06:25:03.845Z,10.69
2017-09-25T06:26:03.833Z,10.76
2017-09-25T06:27:03.831Z,10.75
2017-09-25T06:28:03.521Z,10.86
2017-09-25T06:29:03.810Z,10.9
2017-09-25T06:30:03.499Z,10.96
2017-09-25T06:31:03.811Z,11.08
2017-09-25T06:32:03.496Z,11.11
2017-09-25T06:33:03.813Z,11.12
2017-09-25T06:34:03.796Z,11.22
2017-09-25T06:35:03.483Z,11.25
2017-09-25T06:36:03.790Z,11.35
2017-09-25T06:37:03.483Z,11.36
2017-09-25T06:38:03.793Z,11.52
2017-09-25T06:39:03.780Z,11.55
2017-09-25T06:40:03.783Z,11.59
2017-09-25T06:41:03.467Z,11.75
2017-09-25T06:42:03.467Z,11.8
2017-09-25T06:43:03.462Z,11.7
2017-09-25T06:44:03.787Z,11.77
2017-09-25T06:45:03.475Z,11.65
2017-09-25T06:46:03.474Z,11.6
2017-09-25T06:47:03.456Z,11.55
2017-09-25T06:48:03.765Z,11.65
2017-09-25T06:49:03.456Z,11.59
2017-09-25T06:50:03.763Z,11.52
2017-09-25T06:51:03.139Z,11.51
2017-09-25T06:52:03.473Z,11.45
2017-09-25T06:53:03.745Z,11.57
2017-09-25T06:54:03.433Z,11.65
2017-09-25T06:55:03.176Z,11.52
2017-09-25T06:56:03.735Z,11.57
2017-09-25T06:57:03.119Z,11.52
2017-09-25T06:58:03.757Z,11.55
2017-09-25T06:59:03.363Z,11.62
2017-09-25T07:00:03.899Z,11.59
2017-09-25T07:01:03.416Z,11.68
2017-09-25T07:02:03.426Z,11.78
2017-09-25T07:03:03.410Z,11.9
2017-09-25T07:04:03.725Z,11.95
2017-09-25T07:05:03.730Z,12.03
2017-09-25T07:06:03.406Z,12.03
2017-09-25T07:07:03.749Z,11.99
2017-09-25T07:08:03.946Z,12.06
2017-09-25T07:09:03.763Z,12.2
2017-09-25T07:10:03.404Z,12.24
2017-09-25T07:11:03.790Z,12.31
2017-09-25T07:12:03.394Z,12.39
2017-09-25T07:13:03.387Z,12.39
2017-09-25T07:14:03.712Z,12.22
2017-09-25T07:15:03.711Z,12.39
2017-09-25T07:16:03.384Z,12.45
2017-09-25T07:17:03.691Z,12.47
2017-09-25T07:18:03.690Z,12.5
2017-09-25T07:19:03.378Z,12.5
2017-09-25T07:20:03.380Z,12.58
2017-09-25T07:21:03.686Z,12.61
2017-09-25T07:22:03.382Z,12.73
2017-09-25T07:23:03.374Z,12.68
2017-09-25T07:24:03.681Z,12.8
2017-09-25T07:25:03.066Z,12.85
2017-09-25T07:26:03.680Z,12.76
2017-09-25T07:27:03.071Z,12.85
2017-09-25T07:28:03.679Z,12.78
2017-09-25T07:29:03.681Z,12.83
2017-09-25T07:30:03.363Z,12.8
2017-09-25T07:31:03.369Z,12.9
2017-09-25T07:32:03.669Z,12.98
2017-09-25T07:33:03.682Z,12.85
2017-09-25T07:34:03.670Z,12.75
2017-09-25T07:35:03.970Z,12.76
2017-09-25T07:36:03.673Z,12.68
2017-09-25T07:37:03.674Z,12.8
2017-09-25T07:38:03.043Z,12.79
2017-09-25T07:39:03.358Z,12.9
2017-09-25T07:40:03.672Z,12.97
2017-09-25T07:41:03.658Z,13.03
2017-09-25T07:42:03.654Z,13.13
2017-09-25T07:43:03.352Z,13.18
2017-09-25T07:44:03.361Z,13.11
2017-09-25T07:45:03.343Z,13.03
2017-09-25T07:46:03.655Z,12.97
2017-09-25T07:47:03.342Z,12.97
2017-09-25T07:48:03.652Z,12.98
2017-09-25T07:49:03.365Z,12.98
2017-09-25T07:50:09.069Z,12.98
2017-09-25T07:51:03.336Z,13.25
2017-09-25T07:52:03.344Z,13.67
2017-09-25T07:53:03.647Z,13.89
2017-09-25T07:54:03.642Z,14
2017-09-25T07:55:03.367Z,14.15
2017-09-25T07:56:03.645Z,14.18
2017-09-25T07:57:03.645Z,14.14
2017-09-25T07:58:03.638Z,14.11
2017-09-25T07:59:03.643Z,13.89
2017-09-25T08:00:03.352Z,13.81
2017-09-25T08:01:03.640Z,13.78
2017-09-25T08:02:03.637Z,13.63
2017-09-25T08:03:03.326Z,13.5
2017-09-25T08:04:03.644Z,13.38
2017-09-25T08:05:04.180Z,13.35
2017-09-25T08:06:03.395Z,13.62
2017-09-25T08:07:03.327Z,13.87
2017-09-25T08:08:03.327Z,13.83
2017-09-25T08:09:03.317Z,13.71
2017-09-25T08:10:03.323Z,13.65
2017-09-25T08:11:03.321Z,13.63
2017-09-25T08:12:03.627Z,13.56
2017-09-25T08:13:03.007Z,13.57
2017-09-25T08:14:03.320Z,13.62
2017-09-25T08:15:03.310Z,13.62
2017-09-25T08:16:03.631Z,13.68
2017-09-25T08:17:03.315Z,13.77
2017-09-25T08:18:03.637Z,13.79
2017-09-25T08:19:03.314Z,13.87
2017-09-25T08:20:03.310Z,13.93
2017-09-25T08:21:03.312Z,14
2017-09-25T08:22:03.633Z,13.95
2017-09-25T08:23:03.321Z,14.04
2017-09-25T08:24:03.317Z,14
2017-09-25T08:25:03.620Z,13.96
2017-09-25T08:26:03.622Z,14.07
2017-09-25T08:27:03.622Z,14.05
2017-09-25T08:28:03.638Z,14.05
2017-09-25T08:29:03.620Z,14.07
2017-09-25T08:30:03.312Z,14.08
2017-09-25T08:31:03.318Z,14.14
2017-09-25T08:32:03.621Z,14.18
2017-09-25T08:33:03.311Z,14.2
2017-09-25T08:34:03.310Z,14.35
2017-09-25T08:35:03.626Z,14.37
2017-09-25T08:36:03.625Z,14.41
2017-09-25T08:37:03.309Z,14.41
2017-09-25T08:38:03.315Z,14.48
2017-09-25T08:39:03.621Z,14.45
2017-09-25T08:40:03.625Z,14.6
2017-09-25T08:41:03.617Z,14.53
2017-09-25T08:42:03.325Z,14.5
2017-09-25T08:43:03.618Z,14.37
2017-09-25T08:44:03.616Z,14.48
2017-09-25T08:45:03.624Z,14.51
2017-09-25T08:46:03.309Z,14.51
2017-09-25T08:47:03.614Z,14.6
2017-09-25T08:48:03.626Z,14.62
2017-09-25T08:49:03.614Z,14.65
2017-09-25T08:50:03.628Z,14.68
2017-09-25T08:51:03.666Z,14.69
2017-09-25T08:52:03.616Z,14.65
2017-09-25T08:53:03.621Z,14.72
2017-09-25T08:54:03.615Z,14.73
2017-09-25T08:55:03.615Z,14.86
2017-09-25T08:56:03.306Z,14.81
2017-09-25T08:57:03.613Z,14.89
2017-09-25T08:58:03.614Z,14.88
2017-09-25T08:59:03.618Z,15.04
2017-09-25T09:00:03.309Z,15.07
2017-09-25T09:01:03.613Z,15.03
2017-09-25T09:02:03.615Z,15.04
2017-09-25T09:03:03.615Z,15.07
2017-09-25T09:04:03.309Z,15.1
2017-09-25T09:05:03.616Z,15.11
2017-09-25T09:06:03.765Z,15.24
2017-09-25T09:07:03.617Z,15.24
2017-09-25T09:08:03.616Z,15.31
2017-09-25T09:09:03.617Z,15.37
2017-09-25T09:10:03.619Z,15.37
2017-09-25T09:11:03.650Z,15.46
2017-09-25T09:12:03.619Z,15.55
2017-09-25T09:13:03.310Z,15.68
2017-09-25T09:14:03.128Z,15.75
2017-09-25T09:15:04.025Z,15.83
2017-09-25T09:16:03.621Z,15.84
2017-09-25T09:17:03.313Z,15.91
2017-09-25T09:18:03.624Z,15.91
2017-09-25T09:19:03.627Z,16.01
2017-09-25T09:20:03.624Z,16.02
2017-09-25T09:21:04.433Z,16.17
2017-09-25T09:22:03.636Z,16.28
2017-09-25T09:23:03.642Z,16.35
2017-09-25T09:24:03.320Z,16.38
2017-09-25T09:25:03.627Z,16.41
2017-09-25T09:26:03.007Z,16.51
2017-09-25T09:27:03.330Z,16.54
2017-09-25T09:28:03.633Z,16.46
2017-09-25T09:29:03.320Z,16.5
2017-09-25T09:30:03.638Z,16.47
2017-09-25T09:31:03.636Z,16.54
2017-09-25T09:32:03.634Z,16.54
2017-09-25T09:33:03.325Z,16.49
2017-09-25T09:34:03.323Z,16.53
2017-09-25T09:35:03.654Z,16.46
2017-09-25T09:36:08.648Z,16.26
2017-09-25T09:37:03.339Z,16.28
2017-09-25T09:38:03.331Z,16.38
2017-09-25T09:39:03.642Z,16.36
2017-09-25T09:40:03.633Z,16.33
2017-09-25T09:41:03.345Z,16.41
2017-09-25T09:42:03.035Z,16.47
2017-09-25T09:43:03.024Z,16.53
2017-09-25T09:44:03.335Z,16.64
2017-09-25T09:45:03.661Z,16.68
2017-09-25T09:46:03.019Z,16.65
2017-09-25T09:47:03.639Z,16.68
2017-09-25T09:48:03.641Z,16.79
2017-09-25T09:49:03.339Z,16.76
2017-09-25T09:50:03.025Z,16.84
2017-09-25T09:51:03.642Z,16.84
2017-09-25T09:52:03.643Z,16.97
2017-09-25T09:53:03.666Z,17.04
2017-09-25T09:54:03.342Z,17.16
2017-09-25T09:55:03.340Z,17.24
2017-09-25T09:56:03.341Z,17.33
2017-09-25T09:57:03.348Z,17.19
2017-09-25T09:58:03.652Z,17.16
2017-09-25T09:59:03.654Z,17.2
2017-09-25T10:00:03.344Z,17.14
2017-09-25T10:01:03.654Z,17.34
2017-09-25T10:02:03.665Z,17.45
2017-09-25T10:03:03.353Z,17.36
2017-09-25T10:04:03.659Z,17.31
2017-09-25T10:05:03.350Z,17.36
2017-09-25T10:06:03.669Z,17.38
2017-09-25T10:07:03.371Z,17.56
2017-09-25T10:08:03.660Z,17.63
2017-09-25T10:09:03.673Z,17.71
2017-09-25T10:10:03.667Z,17.79
2017-09-25T10:11:03.368Z,17.87
2017-09-25T10:12:03.359Z,18.07
2017-09-25T10:13:03.672Z,18.18
2017-09-25T10:14:03.696Z,18.16
2017-09-25T10:15:03.696Z,18.18
2017-09-25T10:16:03.676Z,18.23
2017-09-25T10:17:03.701Z,18.22
2017-09-25T10:18:03.680Z,18.13
2017-09-25T10:19:03.680Z,18.23
2017-09-25T10:20:03.695Z,18.26
2017-09-25T10:21:03.699Z,18.31
2017-09-25T10:22:03.702Z,18.35
2017-09-25T10:23:03.701Z,18.26
2017-09-25T10:24:03.699Z,18.34
2017-09-25T10:25:03.698Z,18.44
2017-09-25T10:26:03.716Z,18.52
2017-09-25T10:27:03.700Z,18.58
2017-09-25T10:28:03.390Z,18.52
2017-09-25T10:29:03.396Z,18.41
2017-09-25T10:30:03.706Z,18.31
2017-09-25T10:31:03.706Z,18.23
2017-09-25T10:32:03.409Z,18.2
2017-09-25T10:33:03.413Z,18.15
2017-09-25T10:34:03.706Z,18.15
2017-09-25T10:35:03.101Z,18.23
2017-09-25T10:36:03.724Z,18.31
2017-09-25T10:37:03.417Z,18.29
2017-09-25T10:38:03.415Z,18.31
2017-09-25T10:39:03.419Z,18.52
2017-09-25T10:40:03.724Z,18.5
2017-09-25T10:41:03.413Z,18.62
2017-09-25T10:42:03.751Z,18.81
2017-09-25T10:43:03.729Z,18.89
2017-09-25T10:44:03.422Z,18.83
2017-09-25T10:45:03.425Z,18.86
2017-09-25T10:46:03.765Z,18.83
2017-09-25T10:47:03.430Z,18.84
2017-09-25T10:48:03.739Z,18.7
2017-09-25T10:49:03.780Z,18.78
2017-09-25T10:50:03.754Z,18.81
2017-09-25T10:51:03.440Z,18.88
2017-09-25T10:52:03.754Z,18.96
2017-09-25T10:53:03.748Z,18.98
2017-09-25T10:54:03.449Z,19.09
2017-09-25T10:55:03.444Z,19.14
2017-09-25T10:56:03.446Z,19.07
2017-09-25T10:57:03.448Z,19.19
2017-09-25T10:58:03.759Z,19.14
2017-09-25T10:59:03.453Z,19.12
2017-09-25T11:00:03.775Z,19.18
2017-09-25T11:01:03.779Z,19.15
2017-09-25T11:02:03.459Z,19.16
2017-09-25T11:03:03.464Z,19.16
2017-09-25T11:04:03.466Z,19.21
2017-09-25T11:05:03.784Z,19.21
2017-09-25T11:06:03.470Z,19.14
2017-09-25T11:07:03.782Z,19.27
2017-09-25T11:08:03.476Z,19.18
2017-09-25T11:09:03.481Z,19.26
2017-09-25T11:10:03.479Z,19.36
2017-09-25T11:11:03.179Z,19.4
2017-09-25T11:12:03.793Z,19.51
2017-09-25T11:13:03.801Z,19.52
2017-09-25T11:14:03.802Z,19.63
2017-09-25T11:15:03.493Z,19.62
2017-09-25T11:16:03.494Z,19.59
2017-09-25T11:17:03.187Z,19.63
2017-09-25T11:18:03.807Z,19.58
2017-09-25T11:19:03.811Z,19.49
2017-09-25T11:20:03.808Z,19.47
2017-09-25T11:21:03.816Z,19.67
2017-09-25T11:22:03.507Z,19.69
2017-09-25T11:23:03.206Z,19.7
2017-09-25T11:24:03.822Z,19.79
2017-09-25T11:25:03.822Z,19.77
2017-09-25T11:26:03.519Z,19.91
2017-09-25T11:27:03.844Z,19.85
2017-09-25T11:28:03.839Z,19.79
2017-09-25T11:29:03.523Z,19.81
2017-09-25T11:30:03.842Z,19.79
2017-09-25T11:31:03.543Z,19.82
2017-09-25T11:32:03.843Z,19.79
2017-09-25T11:33:03.844Z,19.81
2017-09-25T11:34:03.844Z,19.84
2017-09-25T11:35:03.550Z,19.84
2017-09-25T11:36:03.858Z,19.89
2017-09-25T11:37:05.404Z,19.88
2017-09-25T11:38:03.896Z,19.92
2017-09-25T11:39:03.858Z,19.91
2017-09-25T11:40:03.868Z,19.91
2017-09-25T11:41:03.874Z,19.96
2017-09-25T11:42:03.896Z,20.06
2017-09-25T11:43:03.556Z,20.02
2017-09-25T11:44:03.899Z,20.1
2017-09-25T11:45:03.897Z,20.22
2017-09-25T11:46:03.568Z,20.31
2017-09-25T11:47:03.571Z,20.36
2017-09-25T11:48:03.900Z,20.4
2017-09-25T11:49:03.265Z,20.48
2017-09-25T11:50:03.589Z,20.52
2017-09-25T11:51:04.003Z,20.67
2017-09-25T11:52:03.596Z,20.65
2017-09-25T11:53:03.904Z,20.69
2017-09-25T11:54:03.923Z,20.66
2017-09-25T11:55:03.911Z,20.74
2017-09-25T11:56:03.613Z,20.72
2017-09-25T11:57:03.926Z,20.69
2017-09-25T11:58:03.925Z,20.65
2017-09-25T11:59:03.603Z,20.6
2017-09-25T12:00:03.924Z,20.65
2017-09-25T12:01:03.933Z,20.67
2017-09-25T12:02:03.619Z,20.7
2017-09-25T12:03:03.619Z,20.77
2017-09-25T12:04:03.639Z,20.85
2017-09-25T12:05:03.946Z,20.88
2017-09-25T12:06:03.949Z,20.93
2017-09-25T12:07:09.056Z,21
2017-09-25T12:08:03.970Z,21.07
2017-09-25T12:09:03.643Z,21.17
2017-09-25T12:10:03.645Z,21.25
2017-09-25T12:11:03.664Z,21.42
2017-09-25T12:12:03.345Z,21.25
2017-09-25T12:13:03.972Z,21.39
2017-09-25T12:14:03.662Z,21.3
2017-09-25T12:15:03.657Z,21.33
2017-09-25T12:16:03.674Z,21.24
2017-09-25T12:17:03.668Z,21.24
2017-09-25T12:18:03.678Z,21.27
2017-09-25T12:19:03.670Z,21.29
2017-09-25T12:20:03.685Z,21.25
2017-09-25T12:21:03.684Z,21.21
2017-09-25T12:22:03.684Z,21.29
2017-09-25T12:23:04.798Z,21.32
2017-09-25T12:24:03.687Z,21.4
2017-09-25T12:25:03.707Z,21.45
2017-09-25T12:26:04.021Z,21.55
2017-09-25T12:27:03.699Z,21.55
2017-09-25T12:28:03.716Z,21.5
2017-09-25T12:29:03.708Z,21.5
2017-09-25T12:30:04.028Z,21.52
2017-09-25T12:31:04.031Z,21.5
2017-09-25T12:32:03.417Z,21.61
2017-09-25T12:33:03.727Z,21.62
2017-09-25T12:34:03.732Z,21.6
2017-09-25T12:35:03.733Z,21.48
2017-09-25T12:36:03.745Z,21.46
2017-09-25T12:37:03.734Z,21.51
2017-09-25T12:38:04.305Z,21.55
2017-09-25T12:39:04.061Z,21.62
2017-09-25T12:40:03.446Z,21.64
2017-09-25T12:41:03.749Z,21.58
2017-09-25T12:42:04.068Z,21.58
2017-09-25T12:43:03.776Z,21.48
2017-09-25T12:44:03.771Z,21.37
2017-09-25T12:45:03.772Z,21.25
2017-09-25T12:46:03.772Z,21.21
2017-09-25T12:47:03.774Z,21.06
2017-09-25T12:48:03.774Z,21
2017-09-25T12:49:04.096Z,20.93
2017-09-25T12:50:03.789Z,20.99
2017-09-25T12:51:03.805Z,21.05
2017-09-25T12:52:04.095Z,21.12
2017-09-25T12:53:05.902Z,21.15
2017-09-25T12:54:03.795Z,21.21
2017-09-25T12:55:04.134Z,21.22
2017-09-25T12:56:04.113Z,21.27